sensor_id;sensor_type;location;lat;lon;timestamp;temperature;humidity
66962;HTU21D;53897;51.126;5.868;2022-12-01T00:00:53;22.14;44.32
66962;HTU21D;53897;51.126;5.868;2022-12-01T00:03:20;22.12;44.30
66962;HTU21D;53897;51.126;5.868;2022-12-01T00:05:46;22.10;44.29
66962;HTU21D;53897;51.126;5.868;2022-12-01T00:08:11;22.09;44.28
66962;HTU21D;53897;51.126;5.868;2022-12-01T00:10:37;22.08;44.26
66962;HTU21D;53897;51.126;5.868;2022-12-01T00:13:05;22.08;44.25
66962;HTU21D;53897;51.126;5.868;2022-12-01T00:15:33;22.06;44.23
66962;HTU21D;53897;51.126;5.868;2022-12-01T00:18:03;22.04;44.24
66962;HTU21D;53897;51.126;5.868;2022-12-01T00:20:33;22.03;44.29
66962;HTU21D;53897;51.126;5.868;2022-12-01T00:22:59;22.01;44.27
66962;HTU21D;53897;51.126;5.868;2022-12-01T00:25:26;21.98;44.27
66962;HTU21D;53897;51.126;5.868;2022-12-01T00:27:52;21.97;44.25
66962;HTU21D;53897;51.126;5.868;2022-12-01T00:30:20;21.96;44.25
66962;HTU21D;53897;51.126;5.868;2022-12-01T00:32:46;21.94;44.27
66962;HTU21D;53897;51.126;5.868;2022-12-01T00:35:14;21.94;44.23
66962;HTU21D;53897;51.126;5.868;2022-12-01T00:37:40;21.91;44.21
66962;HTU21D;53897;51.126;5.868;2022-12-01T00:40:07;21.90;44.22
66962;HTU21D;53897;51.126;5.868;2022-12-01T00:42:33;21.89;44.19
66962;HTU21D;53897;51.126;5.868;2022-12-01T00:45:00;21.89;44.16
66962;HTU21D;53897;51.126;5.868;2022-12-01T00:47:26;21.87;44.16
66962;HTU21D;53897;51.126;5.868;2022-12-01T00:49:52;21.85;44.12
66962;HTU21D;53897;51.126;5.868;2022-12-01T00:52:18;21.83;44.13
66962;HTU21D;53897;51.126;5.868;2022-12-01T00:54:47;21.81;44.11
66962;HTU21D;53897;51.126;5.868;2022-12-01T00:57:13;21.81;44.09
66962;HTU21D;53897;51.126;5.868;2022-12-01T00:59:38;21.80;44.09
66962;HTU21D;53897;51.126;5.868;2022-12-01T01:02:06;21.78;44.09
66962;HTU21D;53897;51.126;5.868;2022-12-01T01:04:34;21.78;44.06
66962;HTU21D;53897;51.126;5.868;2022-12-01T01:07:01;21.76;44.08
66962;HTU21D;53897;51.126;5.868;2022-12-01T01:09:27;21.75;44.06
66962;HTU21D;53897;51.126;5.868;2022-12-01T01:11:53;21.73;44.04
66962;HTU21D;53897;51.126;5.868;2022-12-01T01:14:20;21.74;44.06
66962;HTU21D;53897;51.126;5.868;2022-12-01T01:16:47;21.70;44.05
66962;HTU21D;53897;51.126;5.868;2022-12-01T01:19:13;21.69;44.05
66962;HTU21D;53897;51.126;5.868;2022-12-01T01:21:39;21.69;44.03
66962;HTU21D;53897;51.126;5.868;2022-12-01T01:24:05;21.67;44.00
66962;HTU21D;53897;51.126;5.868;2022-12-01T01:26:31;21.66;44.00
66962;HTU21D;53897;51.126;5.868;2022-12-01T01:28:59;21.65;44.02
66962;HTU21D;53897;51.126;5.868;2022-12-01T01:31:26;21.64;44.02
66962;HTU21D;53897;51.126;5.868;2022-12-01T01:33:54;21.62;44.02
66962;HTU21D;53897;51.126;5.868;2022-12-01T01:36:19;21.62;44.06
66962;HTU21D;53897;51.126;5.868;2022-12-01T01:38:46;21.60;44.08
66962;HTU21D;53897;51.126;5.868;2022-12-01T01:41:13;21.58;44.09
66962;HTU21D;53897;51.126;5.868;2022-12-01T01:44:02;21.57;44.10
66962;HTU21D;53897;51.126;5.868;2022-12-01T01:46:29;21.55;44.10
66962;HTU21D;53897;51.126;5.868;2022-12-01T01:49:08;21.54;44.09
66962;HTU21D;53897;51.126;5.868;2022-12-01T01:51:44;21.53;44.07
66962;HTU21D;53897;51.126;5.868;2022-12-01T01:54:18;21.52;44.06
66962;HTU21D;53897;51.126;5.868;2022-12-01T01:56:47;21.51;44.05
66962;HTU21D;53897;51.126;5.868;2022-12-01T01:59:21;21.49;44.03
66962;HTU21D;53897;51.126;5.868;2022-12-01T02:01:58;21.48;44.04
66962;HTU21D;53897;51.126;5.868;2022-12-01T02:04:26;21.48;44.01
66962;HTU21D;53897;51.126;5.868;2022-12-01T02:06:53;21.47;43.99
66962;HTU21D;53897;51.126;5.868;2022-12-01T02:09:19;21.45;43.97
66962;HTU21D;53897;51.126;5.868;2022-12-01T02:12:08;21.45;43.95
66962;HTU21D;53897;51.126;5.868;2022-12-01T02:17:35;21.42;43.90
66962;HTU21D;53897;51.126;5.868;2022-12-01T02:26:06;21.39;43.86
66962;HTU21D;53897;51.126;5.868;2022-12-01T02:31:12;21.36;43.88
66962;HTU21D;53897;51.126;5.868;2022-12-01T02:33:51;21.34;43.87
66962;HTU21D;53897;51.126;5.868;2022-12-01T02:39:26;21.33;43.87
66962;HTU21D;53897;51.126;5.868;2022-12-01T02:42:02;21.31;43.86
66962;HTU21D;53897;51.126;5.868;2022-12-01T02:44:34;21.30;43.84
66962;HTU21D;53897;51.126;5.868;2022-12-01T02:47:14;21.29;43.84
66962;HTU21D;53897;51.126;5.868;2022-12-01T02:49:49;21.28;43.84
66962;HTU21D;53897;51.126;5.868;2022-12-01T02:52:16;21.28;43.83
66962;HTU21D;53897;51.126;5.868;2022-12-01T02:54:46;21.25;43.82
66962;HTU21D;53897;51.126;5.868;2022-12-01T02:57:14;21.24;43.81
66962;HTU21D;53897;51.126;5.868;2022-12-01T02:59:48;21.24;43.80
66962;HTU21D;53897;51.126;5.868;2022-12-01T03:05:14;21.22;43.79
66962;HTU21D;53897;51.126;5.868;2022-12-01T03:08:00;21.20;43.79
66962;HTU21D;53897;51.126;5.868;2022-12-01T03:10:53;21.20;43.79
66962;HTU21D;53897;51.126;5.868;2022-12-01T03:16:15;21.17;43.78
66962;HTU21D;53897;51.126;5.868;2022-12-01T03:19:03;21.16;43.78
66962;HTU21D;53897;51.126;5.868;2022-12-01T03:21:41;21.15;43.77
66962;HTU21D;53897;51.126;5.868;2022-12-01T03:24:19;21.15;43.78
66962;HTU21D;53897;51.126;5.868;2022-12-01T03:26:50;21.13;43.78
66962;HTU21D;53897;51.126;5.868;2022-12-01T03:29:34;21.11;43.78
66962;HTU21D;53897;51.126;5.868;2022-12-01T03:32:09;21.13;43.77
66962;HTU21D;53897;51.126;5.868;2022-12-01T03:37:32;21.09;43.76
66962;HTU21D;53897;51.126;5.868;2022-12-01T03:40:02;21.08;43.75
66962;HTU21D;53897;51.126;5.868;2022-12-01T03:45:07;21.07;43.75
66962;HTU21D;53897;51.126;5.868;2022-12-01T03:47:34;21.06;43.75
66962;HTU21D;53897;51.126;5.868;2022-12-01T03:50:04;21.05;43.76
66962;HTU21D;53897;51.126;5.868;2022-12-01T03:52:46;21.04;43.76
66962;HTU21D;53897;51.126;5.868;2022-12-01T03:55:31;21.03;43.75
66962;HTU21D;53897;51.126;5.868;2022-12-01T03:58:21;21.03;43.75
66962;HTU21D;53897;51.126;5.868;2022-12-01T04:00:48;21.03;43.74
66962;HTU21D;53897;51.126;5.868;2022-12-01T04:03:23;21.01;43.74
66962;HTU21D;53897;51.126;5.868;2022-12-01T04:05:49;20.99;43.74
66962;HTU21D;53897;51.126;5.868;2022-12-01T04:08:15;20.99;43.72
66962;HTU21D;53897;51.126;5.868;2022-12-01T04:10:41;21.00;43.73
66962;HTU21D;53897;51.126;5.868;2022-12-01T04:13:07;20.98;43.73
66962;HTU21D;53897;51.126;5.868;2022-12-01T04:15:41;20.98;43.72
66962;HTU21D;53897;51.126;5.868;2022-12-01T04:18:06;20.95;43.71
66962;HTU21D;53897;51.126;5.868;2022-12-01T04:20:32;20.94;43.73
66962;HTU21D;53897;51.126;5.868;2022-12-01T04:22:58;20.94;43.73
66962;HTU21D;53897;51.126;5.868;2022-12-01T04:25:23;20.94;43.69
66962;HTU21D;53897;51.126;5.868;2022-12-01T04:27:49;20.91;43.69
66962;HTU21D;53897;51.126;5.868;2022-12-01T04:30:15;20.92;43.69
66962;HTU21D;53897;51.126;5.868;2022-12-01T04:32:42;20.92;43.70
66962;HTU21D;53897;51.126;5.868;2022-12-01T04:35:10;20.90;43.69
66962;HTU21D;53897;51.126;5.868;2022-12-01T04:37:38;20.89;43.69
66962;HTU21D;53897;51.126;5.868;2022-12-01T04:40:04;20.89;43.67
66962;HTU21D;53897;51.126;5.868;2022-12-01T04:42:30;20.87;43.68
66962;HTU21D;53897;51.126;5.868;2022-12-01T04:44:56;20.88;43.69
66962;HTU21D;53897;51.126;5.868;2022-12-01T04:47:22;20.87;43.69
66962;HTU21D;53897;51.126;5.868;2022-12-01T04:49:48;20.85;43.67
66962;HTU21D;53897;51.126;5.868;2022-12-01T04:52:13;20.85;43.67
66962;HTU21D;53897;51.126;5.868;2022-12-01T04:54:39;20.85;43.66
66962;HTU21D;53897;51.126;5.868;2022-12-01T04:57:05;20.83;43.67
66962;HTU21D;53897;51.126;5.868;2022-12-01T04:59:31;20.84;43.67
66962;HTU21D;53897;51.126;5.868;2022-12-01T05:01:56;20.81;43.67
66962;HTU21D;53897;51.126;5.868;2022-12-01T05:04:22;20.81;43.66
66962;HTU21D;53897;51.126;5.868;2022-12-01T05:06:48;20.81;43.66
66962;HTU21D;53897;51.126;5.868;2022-12-01T05:09:15;20.80;43.64
66962;HTU21D;53897;51.126;5.868;2022-12-01T05:11:42;20.79;43.64
66962;HTU21D;53897;51.126;5.868;2022-12-01T05:14:08;20.78;43.64
66962;HTU21D;53897;51.126;5.868;2022-12-01T05:16:34;20.77;43.61
66962;HTU21D;53897;51.126;5.868;2022-12-01T05:19:03;20.78;43.58
66962;HTU21D;53897;51.126;5.868;2022-12-01T05:21:49;20.77;43.66
66962;HTU21D;53897;51.126;5.868;2022-12-01T05:24:15;20.76;43.73
66962;HTU21D;53897;51.126;5.868;2022-12-01T05:26:42;20.76;43.78
66962;HTU21D;53897;51.126;5.868;2022-12-01T05:29:08;20.77;43.83
66962;HTU21D;53897;51.126;5.868;2022-12-01T05:31:34;20.76;43.86
66962;HTU21D;53897;51.126;5.868;2022-12-01T05:34:00;20.76;43.91
66962;HTU21D;53897;51.126;5.868;2022-12-01T05:36:26;20.75;43.99
66962;HTU21D;53897;51.126;5.868;2022-12-01T05:38:52;20.72;44.05
66962;HTU21D;53897;51.126;5.868;2022-12-01T05:41:19;20.70;44.10
66962;HTU21D;53897;51.126;5.868;2022-12-01T05:43:44;20.66;44.19
66962;HTU21D;53897;51.126;5.868;2022-12-01T05:46:10;20.65;44.25
66962;HTU21D;53897;51.126;5.868;2022-12-01T05:48:36;20.65;44.27
66962;HTU21D;53897;51.126;5.868;2022-12-01T05:51:13;20.62;44.33
66962;HTU21D;53897;51.126;5.868;2022-12-01T05:53:40;20.59;44.42
66962;HTU21D;53897;51.126;5.868;2022-12-01T05:56:07;20.56;44.50
66962;HTU21D;53897;51.126;5.868;2022-12-01T05:58:33;20.55;44.57
66962;HTU21D;53897;51.126;5.868;2022-12-01T06:00:59;20.51;44.64
66962;HTU21D;53897;51.126;5.868;2022-12-01T06:03:25;20.50;44.68
66962;HTU21D;53897;51.126;5.868;2022-12-01T06:05:51;20.50;44.69
66962;HTU21D;53897;51.126;5.868;2022-12-01T06:08:17;20.50;44.67
66962;HTU21D;53897;51.126;5.868;2022-12-01T06:10:43;20.50;44.70
66962;HTU21D;53897;51.126;5.868;2022-12-01T06:13:09;20.53;44.68
66962;HTU21D;53897;51.126;5.868;2022-12-01T06:15:35;20.55;44.77
66962;HTU21D;53897;51.126;5.868;2022-12-01T06:18:00;20.56;44.83
66962;HTU21D;53897;51.126;5.868;2022-12-01T06:20:27;20.58;44.93
66962;HTU21D;53897;51.126;5.868;2022-12-01T06:22:52;20.62;45.01
66962;HTU21D;53897;51.126;5.868;2022-12-01T06:25:18;20.68;45.04
66962;HTU21D;53897;51.126;5.868;2022-12-01T06:27:44;20.70;45.06
66962;HTU21D;53897;51.126;5.868;2022-12-01T06:30:10;20.73;45.12
66962;HTU21D;53897;51.126;5.868;2022-12-01T06:32:35;20.80;45.12
66962;HTU21D;53897;51.126;5.868;2022-12-01T06:35:01;20.88;45.16
66962;HTU21D;53897;51.126;5.868;2022-12-01T06:37:27;20.95;45.16
66962;HTU21D;53897;51.126;5.868;2022-12-01T06:39:54;21.02;45.19
66962;HTU21D;53897;51.126;5.868;2022-12-01T06:42:19;21.08;45.15
66962;HTU21D;53897;51.126;5.868;2022-12-01T06:44:45;21.16;45.16
66962;HTU21D;53897;51.126;5.868;2022-12-01T06:47:11;21.21;45.06
66962;HTU21D;53897;51.126;5.868;2022-12-01T06:49:36;21.28;45.03
66962;HTU21D;53897;51.126;5.868;2022-12-01T06:52:03;21.33;44.97
66962;HTU21D;53897;51.126;5.868;2022-12-01T06:54:29;21.38;44.96
66962;HTU21D;53897;51.126;5.868;2022-12-01T06:56:55;21.43;44.87
66962;HTU21D;53897;51.126;5.868;2022-12-01T06:59:21;21.49;44.81
66962;HTU21D;53897;51.126;5.868;2022-12-01T07:01:47;21.52;44.74
66962;HTU21D;53897;51.126;5.868;2022-12-01T07:04:12;21.55;44.71
66962;HTU21D;53897;51.126;5.868;2022-12-01T07:06:38;21.59;44.77
66962;HTU21D;53897;51.126;5.868;2022-12-01T07:09:04;21.63;44.87
66962;HTU21D;53897;51.126;5.868;2022-12-01T07:11:29;21.67;44.90
66962;HTU21D;53897;51.126;5.868;2022-12-01T07:13:57;21.68;44.93
66962;HTU21D;53897;51.126;5.868;2022-12-01T07:16:23;21.72;44.93
66962;HTU21D;53897;51.126;5.868;2022-12-01T07:18:49;21.74;44.66
66962;HTU21D;53897;51.126;5.868;2022-12-01T07:21:15;21.76;44.26
66962;HTU21D;53897;51.126;5.868;2022-12-01T07:23:41;21.76;44.05
66962;HTU21D;53897;51.126;5.868;2022-12-01T07:26:11;21.76;44.06
66962;HTU21D;53897;51.126;5.868;2022-12-01T07:28:37;21.76;44.10
66962;HTU21D;53897;51.126;5.868;2022-12-01T07:31:13;21.77;44.11
66962;HTU21D;53897;51.126;5.868;2022-12-01T07:33:39;21.78;44.10
66962;HTU21D;53897;51.126;5.868;2022-12-01T07:36:06;21.78;44.13
66962;HTU21D;53897;51.126;5.868;2022-12-01T07:38:34;21.79;43.99
66962;HTU21D;53897;51.126;5.868;2022-12-01T07:41:03;21.78;44.08
66962;HTU21D;53897;51.126;5.868;2022-12-01T07:43:30;21.80;44.05
66962;HTU21D;53897;51.126;5.868;2022-12-01T07:46:01;21.80;44.00
66962;HTU21D;53897;51.126;5.868;2022-12-01T07:48:30;21.81;43.95
66962;HTU21D;53897;51.126;5.868;2022-12-01T07:50:56;21.83;43.92
66962;HTU21D;53897;51.126;5.868;2022-12-01T07:53:22;21.84;43.86
66962;HTU21D;53897;51.126;5.868;2022-12-01T07:55:49;21.84;43.93
66962;HTU21D;53897;51.126;5.868;2022-12-01T07:58:15;21.85;43.93
66962;HTU21D;53897;51.126;5.868;2022-12-01T08:00:41;21.85;44.00
66962;HTU21D;53897;51.126;5.868;2022-12-01T08:03:19;21.88;43.96
66962;HTU21D;53897;51.126;5.868;2022-12-01T08:05:54;21.89;43.92
66962;HTU21D;53897;51.126;5.868;2022-12-01T08:08:24;21.92;43.88
66962;HTU21D;53897;51.126;5.868;2022-12-01T08:10:51;21.92;43.86
66962;HTU21D;53897;51.126;5.868;2022-12-01T08:13:18;21.95;43.85
66962;HTU21D;53897;51.126;5.868;2022-12-01T08:15:44;21.94;43.81
66962;HTU21D;53897;51.126;5.868;2022-12-01T08:18:10;21.96;43.77
66962;HTU21D;53897;51.126;5.868;2022-12-01T08:20:36;21.97;43.71
66962;HTU21D;53897;51.126;5.868;2022-12-01T08:23:10;22.01;43.69
66962;HTU21D;53897;51.126;5.868;2022-12-01T08:25:35;22.02;43.56
66962;HTU21D;53897;51.126;5.868;2022-12-01T08:28:01;22.03;43.52
66962;HTU21D;53897;51.126;5.868;2022-12-01T08:30:27;22.03;43.67
66962;HTU21D;53897;51.126;5.868;2022-12-01T08:32:55;22.04;43.64
66962;HTU21D;53897;51.126;5.868;2022-12-01T08:35:22;22.05;43.59
66962;HTU21D;53897;51.126;5.868;2022-12-01T08:37:51;22.06;43.63
66962;HTU21D;53897;51.126;5.868;2022-12-01T08:40:17;22.08;43.67
66962;HTU21D;53897;51.126;5.868;2022-12-01T08:42:43;22.08;43.67
66962;HTU21D;53897;51.126;5.868;2022-12-01T08:45:09;22.09;43.64
66962;HTU21D;53897;51.126;5.868;2022-12-01T08:47:35;22.09;43.61
66962;HTU21D;53897;51.126;5.868;2022-12-01T08:50:01;22.10;43.55
66962;HTU21D;53897;51.126;5.868;2022-12-01T08:52:33;22.11;43.50
66962;HTU21D;53897;51.126;5.868;2022-12-01T08:55:00;22.11;43.43
66962;HTU21D;53897;51.126;5.868;2022-12-01T08:57:28;22.13;43.39
66962;HTU21D;53897;51.126;5.868;2022-12-01T08:59:54;22.14;43.37
66962;HTU21D;53897;51.126;5.868;2022-12-01T09:02:20;22.16;43.35
66962;HTU21D;53897;51.126;5.868;2022-12-01T09:04:49;22.16;43.32
66962;HTU21D;53897;51.126;5.868;2022-12-01T09:07:16;22.16;43.22
66962;HTU21D;53897;51.126;5.868;2022-12-01T09:09:43;22.18;43.26
66962;HTU21D;53897;51.126;5.868;2022-12-01T09:12:09;22.17;43.29
66962;HTU21D;53897;51.126;5.868;2022-12-01T09:14:41;22.18;43.19
66962;HTU21D;53897;51.126;5.868;2022-12-01T09:17:08;22.18;43.20
66962;HTU21D;53897;51.126;5.868;2022-12-01T09:19:34;22.19;43.21
66962;HTU21D;53897;51.126;5.868;2022-12-01T09:22:01;22.18;43.19
66962;HTU21D;53897;51.126;5.868;2022-12-01T09:24:27;22.18;43.19
66962;HTU21D;53897;51.126;5.868;2022-12-01T09:26:57;22.20;43.18
66962;HTU21D;53897;51.126;5.868;2022-12-01T09:29:24;22.20;43.13
66962;HTU21D;53897;51.126;5.868;2022-12-01T09:31:54;22.21;43.13
66962;HTU21D;53897;51.126;5.868;2022-12-01T09:34:20;22.22;43.08
66962;HTU21D;53897;51.126;5.868;2022-12-01T09:36:47;22.23;43.06
66962;HTU21D;53897;51.126;5.868;2022-12-01T09:39:18;22.25;43.05
66962;HTU21D;53897;51.126;5.868;2022-12-01T09:41:56;22.26;43.02
66962;HTU21D;53897;51.126;5.868;2022-12-01T09:44:49;22.27;43.01
66962;HTU21D;53897;51.126;5.868;2022-12-01T09:47:30;22.28;42.97
66962;HTU21D;53897;51.126;5.868;2022-12-01T09:49:58;22.28;42.97
66962;HTU21D;53897;51.126;5.868;2022-12-01T09:52:28;22.29;42.95
66962;HTU21D;53897;51.126;5.868;2022-12-01T09:54:59;22.29;42.93
66962;HTU21D;53897;51.126;5.868;2022-12-01T09:57:34;22.32;42.90
66962;HTU21D;53897;51.126;5.868;2022-12-01T10:00:20;22.32;42.90
66962;HTU21D;53897;51.126;5.868;2022-12-01T10:02:59;22.33;42.88
66962;HTU21D;53897;51.126;5.868;2022-12-01T10:05:44;22.33;42.89
66962;HTU21D;53897;51.126;5.868;2022-12-01T10:08:15;22.33;42.87
66962;HTU21D;53897;51.126;5.868;2022-12-01T10:10:46;22.34;42.77
66962;HTU21D;53897;51.126;5.868;2022-12-01T10:13:23;22.33;42.74
66962;HTU21D;53897;51.126;5.868;2022-12-01T10:21:15;22.33;42.81
66962;HTU21D;53897;51.126;5.868;2022-12-01T10:32:16;22.33;42.77
66962;HTU21D;53897;51.126;5.868;2022-12-01T10:34:43;22.34;42.80
66962;HTU21D;53897;51.126;5.868;2022-12-01T10:37:24;22.33;42.77
66962;HTU21D;53897;51.126;5.868;2022-12-01T10:39:52;22.32;42.80
66962;HTU21D;53897;51.126;5.868;2022-12-01T10:42:41;22.33;42.81
66962;HTU21D;53897;51.126;5.868;2022-12-01T10:45:29;22.33;42.83
66962;HTU21D;53897;51.126;5.868;2022-12-01T10:48:18;22.33;42.77
66962;HTU21D;53897;51.126;5.868;2022-12-01T10:50:51;22.33;42.74
66962;HTU21D;53897;51.126;5.868;2022-12-01T10:56:05;22.33;42.69
66962;HTU21D;53897;51.126;5.868;2022-12-01T10:58:45;22.35;42.81
66962;HTU21D;53897;51.126;5.868;2022-12-01T11:01:24;22.37;42.89
66962;HTU21D;53897;51.126;5.868;2022-12-01T11:04:07;22.39;42.94
66962;HTU21D;53897;51.126;5.868;2022-12-01T11:06:33;22.41;42.96
66962;HTU21D;53897;51.126;5.868;2022-12-01T11:09:06;22.41;42.99
66962;HTU21D;53897;51.126;5.868;2022-12-01T11:11:41;22.44;43.01
66962;HTU21D;53897;51.126;5.868;2022-12-01T11:14:22;22.46;43.03
66962;HTU21D;53897;51.126;5.868;2022-12-01T11:16:50;22.48;43.10
66962;HTU21D;53897;51.126;5.868;2022-12-01T11:21:51;22.51;43.16
66962;HTU21D;53897;51.126;5.868;2022-12-01T11:24:38;22.53;43.14
66962;HTU21D;53897;51.126;5.868;2022-12-01T11:27:20;22.53;43.14
66962;HTU21D;53897;51.126;5.868;2022-12-01T11:29:56;22.54;43.09
66962;HTU21D;53897;51.126;5.868;2022-12-01T11:32:37;22.55;43.06
66962;HTU21D;53897;51.126;5.868;2022-12-01T11:35:15;22.55;43.04
66962;HTU21D;53897;51.126;5.868;2022-12-01T11:37:47;22.56;43.05
66962;HTU21D;53897;51.126;5.868;2022-12-01T11:40:25;22.57;43.03
66962;HTU21D;53897;51.126;5.868;2022-12-01T11:42:56;22.57;43.02
66962;HTU21D;53897;51.126;5.868;2022-12-01T11:45:38;22.61;43.03
66962;HTU21D;53897;51.126;5.868;2022-12-01T11:50:45;22.61;43.02
66962;HTU21D;53897;51.126;5.868;2022-12-01T11:53:34;22.60;43.02
66962;HTU21D;53897;51.126;5.868;2022-12-01T11:56:26;22.60;43.02
66962;HTU21D;53897;51.126;5.868;2022-12-01T11:59:00;22.60;42.99
66962;HTU21D;53897;51.126;5.868;2022-12-01T12:04:29;22.60;42.97
66962;HTU21D;53897;51.126;5.868;2022-12-01T12:21:27;22.58;42.65
66962;HTU21D;53897;51.126;5.868;2022-12-01T12:24:18;22.57;42.77
66962;HTU21D;53897;51.126;5.868;2022-12-01T12:29:48;22.58;42.82
66962;HTU21D;53897;51.126;5.868;2022-12-01T12:32:46;22.56;42.84
66962;HTU21D;53897;51.126;5.868;2022-12-01T12:38:03;22.55;42.83
66962;HTU21D;53897;51.126;5.868;2022-12-01T12:43:47;22.54;42.77
66962;HTU21D;53897;51.126;5.868;2022-12-01T12:46:27;22.54;42.69
66962;HTU21D;53897;51.126;5.868;2022-12-01T12:49:14;22.53;42.71
66962;HTU21D;53897;51.126;5.868;2022-12-01T12:57:38;22.54;42.74
66962;HTU21D;53897;51.126;5.868;2022-12-01T13:00:06;22.54;42.77
66962;HTU21D;53897;51.126;5.868;2022-12-01T13:02:43;22.54;42.77
66962;HTU21D;53897;51.126;5.868;2022-12-01T13:05:48;22.53;42.85
66962;HTU21D;53897;51.126;5.868;2022-12-01T13:08:23;22.54;42.86
66962;HTU21D;53897;51.126;5.868;2022-12-01T13:11:19;22.56;42.87
66962;HTU21D;53897;51.126;5.868;2022-12-01T13:16:19;22.56;42.87
66962;HTU21D;53897;51.126;5.868;2022-12-01T13:18:52;22.56;42.86
66962;HTU21D;53897;51.126;5.868;2022-12-01T13:21:21;22.57;42.84
66962;HTU21D;53897;51.126;5.868;2022-12-01T13:23:48;22.57;42.84
66962;HTU21D;53897;51.126;5.868;2022-12-01T13:26:17;22.57;42.86
66962;HTU21D;53897;51.126;5.868;2022-12-01T13:28:56;22.58;42.87
66962;HTU21D;53897;51.126;5.868;2022-12-01T13:31:22;22.57;42.85
66962;HTU21D;53897;51.126;5.868;2022-12-01T13:33:59;22.57;42.84
66962;HTU21D;53897;51.126;5.868;2022-12-01T13:36:27;22.58;42.84
66962;HTU21D;53897;51.126;5.868;2022-12-01T13:39:05;22.58;42.86
66962;HTU21D;53897;51.126;5.868;2022-12-01T13:41:34;22.57;42.85
66962;HTU21D;53897;51.126;5.868;2022-12-01T13:44:07;22.56;42.87
66962;HTU21D;53897;51.126;5.868;2022-12-01T13:49:35;22.57;42.82
66962;HTU21D;53897;51.126;5.868;2022-12-01T14:00:25;22.56;42.74
66962;HTU21D;53897;51.126;5.868;2022-12-01T14:08:24;22.53;42.65
66962;HTU21D;53897;51.126;5.868;2022-12-01T14:11:00;22.53;42.64
66962;HTU21D;53897;51.126;5.868;2022-12-01T14:13:30;22.52;42.60
66962;HTU21D;53897;51.126;5.868;2022-12-01T14:15:59;22.51;42.58
66962;HTU21D;53897;51.126;5.868;2022-12-01T14:18:35;22.51;42.55
66962;HTU21D;53897;51.126;5.868;2022-12-01T14:21:08;22.51;42.39
66962;HTU21D;53897;51.126;5.868;2022-12-01T14:23:39;22.51;42.50
66962;HTU21D;53897;51.126;5.868;2022-12-01T14:26:23;22.50;42.47
66962;HTU21D;53897;51.126;5.868;2022-12-01T14:29:22;22.50;42.37
66962;HTU21D;53897;51.126;5.868;2022-12-01T14:34:20;22.49;42.58
66962;HTU21D;53897;51.126;5.868;2022-12-01T14:39:37;22.49;42.48
66962;HTU21D;53897;51.126;5.868;2022-12-01T14:42:13;22.48;42.53
66962;HTU21D;53897;51.126;5.868;2022-12-01T14:45:02;22.47;42.29
66962;HTU21D;53897;51.126;5.868;2022-12-01T14:47:41;22.46;42.51
66962;HTU21D;53897;51.126;5.868;2022-12-01T14:50:17;22.48;42.61
66962;HTU21D;53897;51.126;5.868;2022-12-01T14:52:48;22.47;42.65
66962;HTU21D;53897;51.126;5.868;2022-12-01T14:55:22;22.46;42.58
66962;HTU21D;53897;51.126;5.868;2022-12-01T14:57:52;22.46;42.56
66962;HTU21D;53897;51.126;5.868;2022-12-01T15:00:24;22.46;42.62
66962;HTU21D;53897;51.126;5.868;2022-12-01T15:03:01;22.47;42.69
66962;HTU21D;53897;51.126;5.868;2022-12-01T15:05:30;22.47;42.74
66962;HTU21D;53897;51.126;5.868;2022-12-01T15:08:00;22.47;42.76
66962;HTU21D;53897;51.126;5.868;2022-12-01T15:10:29;22.47;42.69
66962;HTU21D;53897;51.126;5.868;2022-12-01T15:16:12;22.46;42.74
66962;HTU21D;53897;51.126;5.868;2022-12-01T15:18:38;22.44;42.79
66962;HTU21D;53897;51.126;5.868;2022-12-01T15:24:20;22.44;43.04
66962;HTU21D;53897;51.126;5.868;2022-12-01T15:26:52;22.47;43.11
66962;HTU21D;53897;51.126;5.868;2022-12-01T15:31:57;22.46;43.47
66962;HTU21D;53897;51.126;5.868;2022-12-01T15:36:54;22.46;44.20
66962;HTU21D;53897;51.126;5.868;2022-12-01T15:39:34;22.47;44.52
66962;HTU21D;53897;51.126;5.868;2022-12-01T15:42:02;22.48;44.71
66962;HTU21D;53897;51.126;5.868;2022-12-01T15:44:34;22.48;44.87
66962;HTU21D;53897;51.126;5.868;2022-12-01T15:47:42;22.50;45.44
66962;HTU21D;53897;51.126;5.868;2022-12-01T15:50:35;22.51;45.53
66962;HTU21D;53897;51.126;5.868;2022-12-01T15:55:47;22.52;45.67
66962;HTU21D;53897;51.126;5.868;2022-12-01T15:58:23;22.52;45.64
66962;HTU21D;53897;51.126;5.868;2022-12-01T16:01:05;22.52;45.65
66962;HTU21D;53897;51.126;5.868;2022-12-01T16:03:55;22.54;45.65
66962;HTU21D;53897;51.126;5.868;2022-12-01T16:06:27;22.54;45.57
66962;HTU21D;53897;51.126;5.868;2022-12-01T16:09:21;22.55;45.10
66962;HTU21D;53897;51.126;5.868;2022-12-01T16:12:49;22.53;44.61
66962;HTU21D;53897;51.126;5.868;2022-12-01T16:14:52;22.52;44.29
66962;HTU21D;53897;51.126;5.868;2022-12-01T16:17:20;22.53;44.09
66962;HTU21D;53897;51.126;5.868;2022-12-01T16:19:45;22.51;44.02
66962;HTU21D;53897;51.126;5.868;2022-12-01T16:22:16;22.50;43.96
66962;HTU21D;53897;51.126;5.868;2022-12-01T16:24:52;22.50;43.84
66962;HTU21D;53897;51.126;5.868;2022-12-01T16:27:24;22.48;43.83
66962;HTU21D;53897;51.126;5.868;2022-12-01T16:29:55;22.48;43.89
66962;HTU21D;53897;51.126;5.868;2022-12-01T16:32:30;22.46;44.43
66962;HTU21D;53897;51.126;5.868;2022-12-01T16:34:56;22.48;44.91
66962;HTU21D;53897;51.126;5.868;2022-12-01T16:37:23;22.49;45.09
66962;HTU21D;53897;51.126;5.868;2022-12-01T16:39:49;22.49;45.20
66962;HTU21D;53897;51.126;5.868;2022-12-01T16:42:17;22.51;45.34
66962;HTU21D;53897;51.126;5.868;2022-12-01T16:44:43;22.52;45.39
66962;HTU21D;53897;51.126;5.868;2022-12-01T16:47:17;22.52;45.43
66962;HTU21D;53897;51.126;5.868;2022-12-01T16:49:43;22.52;45.48
66962;HTU21D;53897;51.126;5.868;2022-12-01T16:52:09;22.53;45.29
66962;HTU21D;53897;51.126;5.868;2022-12-01T16:54:34;22.53;45.43
66962;HTU21D;53897;51.126;5.868;2022-12-01T16:57:00;22.53;45.52
66962;HTU21D;53897;51.126;5.868;2022-12-01T16:59:26;22.55;45.61
66962;HTU21D;53897;51.126;5.868;2022-12-01T17:01:51;22.55;45.59
66962;HTU21D;53897;51.126;5.868;2022-12-01T17:04:17;22.54;45.63
66962;HTU21D;53897;51.126;5.868;2022-12-01T17:06:43;22.56;45.76
66962;HTU21D;53897;51.126;5.868;2022-12-01T17:09:08;22.55;45.65
66962;HTU21D;53897;51.126;5.868;2022-12-01T17:11:34;22.54;44.93
66962;HTU21D;53897;51.126;5.868;2022-12-01T17:14:00;22.53;44.99
66962;HTU21D;53897;51.126;5.868;2022-12-01T17:16:26;22.54;45.22
66962;HTU21D;53897;51.126;5.868;2022-12-01T17:18:51;22.53;45.34
66962;HTU21D;53897;51.126;5.868;2022-12-01T17:21:17;22.52;44.83
66962;HTU21D;53897;51.126;5.868;2022-12-01T17:23:43;22.54;44.57
66962;HTU21D;53897;51.126;5.868;2022-12-01T17:26:14;22.54;44.82
66962;HTU21D;53897;51.126;5.868;2022-12-01T17:28:41;22.54;44.90
66962;HTU21D;53897;51.126;5.868;2022-12-01T17:31:07;22.52;44.92
66962;HTU21D;53897;51.126;5.868;2022-12-01T17:33:35;22.52;44.92
66962;HTU21D;53897;51.126;5.868;2022-12-01T17:36:08;22.53;44.93